sensor_id;sensor_type;location;lat;lon;timestamp;temperature;humidity
15298;DHT22;7750;48.796;9.026;2023-03-21T00:03:26;14.20;63.90
15298;DHT22;7750;48.796;9.026;2023-03-21T00:08:26;14.10;64.00
15298;DHT22;7750;48.796;9.026;2023-03-21T00:13:28;14.10;64.10
15298;DHT22;7750;48.796;9.026;2023-03-21T00:18:31;14.10;64.00
15298;DHT22;7750;48.796;9.026;2023-03-21T00:23:35;14.10;64.40
15298;DHT22;7750;48.796;9.026;2023-03-21T00:28:40;14.00;64.30
15298;DHT22;7750;48.796;9.026;2023-03-21T00:33:42;14.00;64.40
15298;DHT22;7750;48.796;9.026;2023-03-21T00:38:43;13.90;64.50
15298;DHT22;7750;48.796;9.026;2023-03-21T00:43:43;14.00;64.50
15298;DHT22;7750;48.796;9.026;2023-03-21T00:48:44;13.90;65.30
15298;DHT22;7750;48.796;9.026;2023-03-21T00:53:44;13.90;64.70
15298;DHT22;7750;48.796;9.026;2023-03-21T00:58:45;13.90;64.60
15298;DHT22;7750;48.796;9.026;2023-03-21T01:03:46;13.90;64.80
15298;DHT22;7750;48.796;9.026;2023-03-21T01:08:50;13.90;65.10
15298;DHT22;7750;48.796;9.026;2023-03-21T01:13:52;13.80;65.00
15298;DHT22;7750;48.796;9.026;2023-03-21T01:18:53;13.80;65.10
15298;DHT22;7750;48.796;9.026;2023-03-21T01:23:53;13.80;65.20
15298;DHT22;7750;48.796;9.026;2023-03-21T01:28:54;13.80;65.20
15298;DHT22;7750;48.796;9.026;2023-03-21T01:33:55;13.70;65.20
15298;DHT22;7750;48.796;9.026;2023-03-21T01:38:55;13.70;65.20
15298;DHT22;7750;48.796;9.026;2023-03-21T01:43:56;13.70;65.40
15298;DHT22;7750;48.796;9.026;2023-03-21T01:49:21;13.70;65.50
15298;DHT22;7750;48.796;9.026;2023-03-21T01:54:33;13.70;65.60
15298;DHT22;7750;48.796;9.026;2023-03-21T01:59:37;13.60;65.70
15298;DHT22;7750;48.796;9.026;2023-03-21T02:04:40;13.60;65.70
15298;DHT22;7750;48.796;9.026;2023-03-21T02:09:45;13.60;65.70
15298;DHT22;7750;48.796;9.026;2023-03-21T02:14:47;13.60;65.80
15298;DHT22;7750;48.796;9.026;2023-03-21T02:20:16;13.60;65.70
15298;DHT22;7750;48.796;9.026;2023-03-21T02:25:38;13.60;65.90
15298;DHT22;7750;48.796;9.026;2023-03-21T02:46:31;13.50;66.30
15298;DHT22;7750;48.796;9.026;2023-03-21T02:51:36;13.40;66.20
15298;DHT22;7750;48.796;9.026;2023-03-21T02:56:38;13.40;66.20
15298;DHT22;7750;48.796;9.026;2023-03-21T03:01:40;13.40;66.10
15298;DHT22;7750;48.796;9.026;2023-03-21T03:07:12;13.30;66.30
15298;DHT22;7750;48.796;9.026;2023-03-21T03:17:50;13.30;67.00
15298;DHT22;7750;48.796;9.026;2023-03-21T03:28:05;13.30;67.10
15298;DHT22;7750;48.796;9.026;2023-03-21T03:33:08;13.20;67.00
15298;DHT22;7750;48.796;9.026;2023-03-21T03:38:11;13.20;67.10
15298;DHT22;7750;48.796;9.026;2023-03-21T03:43:27;13.10;67.20
15298;DHT22;7750;48.796;9.026;2023-03-21T03:48:33;13.20;67.50
15298;DHT22;7750;48.796;9.026;2023-03-21T03:53:51;13.10;67.30
15298;DHT22;7750;48.796;9.026;2023-03-21T03:58:55;13.10;67.30
15298;DHT22;7750;48.796;9.026;2023-03-21T04:03:56;13.10;67.30
15298;DHT22;7750;48.796;9.026;2023-03-21T04:08:57;13.00;66.90
15298;DHT22;7750;48.796;9.026;2023-03-21T04:13:57;13.00;67.00
15298;DHT22;7750;48.796;9.026;2023-03-21T04:18:58;13.00;67.00
15298;DHT22;7750;48.796;9.026;2023-03-21T04:23:59;12.90;66.70
15298;DHT22;7750;48.796;9.026;2023-03-21T04:29:00;12.90;66.80
15298;DHT22;7750;48.796;9.026;2023-03-21T04:34:02;12.80;66.60
15298;DHT22;7750;48.796;9.026;2023-03-21T04:39:05;12.80;66.50
15298;DHT22;7750;48.796;9.026;2023-03-21T04:44:13;12.70;66.30
15298;DHT22;7750;48.796;9.026;2023-03-21T04:49:14;12.60;66.40
15298;DHT22;7750;48.796;9.026;2023-03-21T04:54:15;12.50;66.30
15298;DHT22;7750;48.796;9.026;2023-03-21T04:59:16;12.40;66.40
15298;DHT22;7750;48.796;9.026;2023-03-21T05:04:17;12.30;66.50
15298;DHT22;7750;48.796;9.026;2023-03-21T05:09:18;12.30;66.80
15298;DHT22;7750;48.796;9.026;2023-03-21T05:14:22;12.20;66.80
15298;DHT22;7750;48.796;9.026;2023-03-21T05:19:26;12.20;67.10
15298;DHT22;7750;48.796;9.026;2023-03-21T05:24:39;12.20;67.00
15298;DHT22;7750;48.796;9.026;2023-03-21T05:29:41;12.10;66.90
15298;DHT22;7750;48.796;9.026;2023-03-21T05:34:41;12.10;67.10
15298;DHT22;7750;48.796;9.026;2023-03-21T05:39:42;12.00;67.10
15298;DHT22;7750;48.796;9.026;2023-03-21T05:44:43;12.00;67.10
15298;DHT22;7750;48.796;9.026;2023-03-21T05:49:44;11.90;67.30
15298;DHT22;7750;48.796;9.026;2023-03-21T05:54:46;11.90;67.40
15298;DHT22;7750;48.796;9.026;2023-03-21T05:59:47;11.90;67.30
15298;DHT22;7750;48.796;9.026;2023-03-21T06:04:47;11.90;67.50
15298;DHT22;7750;48.796;9.026;2023-03-21T06:09:48;11.90;67.70
15298;DHT22;7750;48.796;9.026;2023-03-21T06:14:49;11.90;67.80
15298;DHT22;7750;48.796;9.026;2023-03-21T06:19:51;11.90;67.90
15298;DHT22;7750;48.796;9.026;2023-03-21T06:24:52;11.90;67.90
15298;DHT22;7750;48.796;9.026;2023-03-21T06:29:52;11.90;68.00
15298;DHT22;7750;48.796;9.026;2023-03-21T06:34:53;12.00;68.20
15298;DHT22;7750;48.796;9.026;2023-03-21T06:39:53;12.00;68.20
15298;DHT22;7750;48.796;9.026;2023-03-21T06:44:54;12.10;68.50
15298;DHT22;7750;48.796;9.026;2023-03-21T06:49:55;12.20;68.50
15298;DHT22;7750;48.796;9.026;2023-03-21T06:54:55;12.40;68.60
15298;DHT22;7750;48.796;9.026;2023-03-21T06:59:56;12.70;68.20
15298;DHT22;7750;48.796;9.026;2023-03-21T07:04:57;13.10;68.50
15298;DHT22;7750;48.796;9.026;2023-03-21T07:09:58;13.50;68.10
15298;DHT22;7750;48.796;9.026;2023-03-21T07:14:59;14.00;67.80
15298;DHT22;7750;48.796;9.026;2023-03-21T07:20:00;14.40;67.10
15298;DHT22;7750;48.796;9.026;2023-03-21T07:25:01;14.70;65.10
15298;DHT22;7750;48.796;9.026;2023-03-21T07:30:03;14.80;65.30
15298;DHT22;7750;48.796;9.026;2023-03-21T07:35:06;15.10;66.60
15298;DHT22;7750;48.796;9.026;2023-03-21T07:40:08;15.50;65.90
15298;DHT22;7750;48.796;9.026;2023-03-21T07:45:10;15.80;64.30
15298;DHT22;7750;48.796;9.026;2023-03-21T07:50:18;16.20;63.40
15298;DHT22;7750;48.796;9.026;2023-03-21T07:55:19;16.40;61.60
15298;DHT22;7750;48.796;9.026;2023-03-21T08:00:20;16.70;61.60
15298;DHT22;7750;48.796;9.026;2023-03-21T08:05:29;17.00;61.80
15298;DHT22;7750;48.796;9.026;2023-03-21T08:10:32;17.30;61.60
15298;DHT22;7750;48.796;9.026;2023-03-21T08:15:34;17.90;61.70
15298;DHT22;7750;48.796;9.026;2023-03-21T08:20:35;18.40;59.10
15298;DHT22;7750;48.796;9.026;2023-03-21T08:25:35;18.90;58.00
15298;DHT22;7750;48.796;9.026;2023-03-21T08:30:36;19.10;56.10
15298;DHT22;7750;48.796;9.026;2023-03-21T08:35:37;19.20;55.00
15298;DHT22;7750;48.796;9.026;2023-03-21T08:40:38;19.30;55.20
15298;DHT22;7750;48.796;9.026;2023-03-21T08:45:40;19.40;53.20
15298;DHT22;7750;48.796;9.026;2023-03-21T08:50:40;19.40;53.00
15298;DHT22;7750;48.796;9.026;2023-03-21T08:55:42;19.30;51.80
15298;DHT22;7750;48.796;9.026;2023-03-21T09:00:43;19.20;52.50
15298;DHT22;7750;48.796;9.026;2023-03-21T09:05:43;19.10;53.00
15298;DHT22;7750;48.796;9.026;2023-03-21T09:10:44;19.00;52.20
15298;DHT22;7750;48.796;9.026;2023-03-21T09:15:45;18.90;51.70
15298;DHT22;7750;48.796;9.026;2023-03-21T09:20:46;18.80;52.20
15298;DHT22;7750;48.796;9.026;2023-03-21T09:25:47;18.60;50.90
15298;DHT22;7750;48.796;9.026;2023-03-21T09:30:48;18.40;51.60
15298;DHT22;7750;48.796;9.026;2023-03-21T09:35:48;18.30;50.70
15298;DHT22;7750;48.796;9.026;2023-03-21T09:46:21;18.50;52.10
15298;DHT22;7750;48.796;9.026;2023-03-21T09:51:30;18.60;52.50
15298;DHT22;7750;48.796;9.026;2023-03-21T09:56:34;18.80;51.40
15298;DHT22;7750;48.796;9.026;2023-03-21T10:01:36;18.90;50.70
15298;DHT22;7750;48.796;9.026;2023-03-21T10:06:50;19.00;51.30
15298;DHT22;7750;48.796;9.026;2023-03-21T10:11:59;19.10;51.10
15298;DHT22;7750;48.796;9.026;2023-03-21T10:22:27;19.30;49.60
15298;DHT22;7750;48.796;9.026;2023-03-21T10:27:28;19.40;50.70
15298;DHT22;7750;48.796;9.026;2023-03-21T10:32:29;19.60;50.60
15298;DHT22;7750;48.796;9.026;2023-03-21T10:37:29;19.60;49.80
15298;DHT22;7750;48.796;9.026;2023-03-21T10:42:31;19.70;50.50
15298;DHT22;7750;48.796;9.026;2023-03-21T10:47:35;19.70;49.80
15298;DHT22;7750;48.796;9.026;2023-03-21T10:52:40;19.70;48.80
15298;DHT22;7750;48.796;9.026;2023-03-21T10:57:42;19.60;49.50
15298;DHT22;7750;48.796;9.026;2023-03-21T11:02:47;19.60;48.50
15298;DHT22;7750;48.796;9.026;2023-03-21T11:08:04;19.60;49.10
15298;DHT22;7750;48.796;9.026;2023-03-21T11:13:16;19.50;48.30
15298;DHT22;7750;48.796;9.026;2023-03-21T11:23:20;19.60;49.20
15298;DHT22;7750;48.796;9.026;2023-03-21T11:28:26;19.60;48.40
15298;DHT22;7750;48.796;9.026;2023-03-21T11:33:39;19.50;46.90
15298;DHT22;7750;48.796;9.026;2023-03-21T11:38:43;19.30;45.50
15298;DHT22;7750;48.796;9.026;2023-03-21T11:43:50;19.20;47.40
15298;DHT22;7750;48.796;9.026;2023-03-21T11:48:52;19.20;47.20
15298;DHT22;7750;48.796;9.026;2023-03-21T11:59:10;19.20;46.90
15298;DHT22;7750;48.796;9.026;2023-03-21T12:04:41;19.10;47.70
15298;DHT22;7750;48.796;9.026;2023-03-21T12:15:16;19.20;48.80
15298;DHT22;7750;48.796;9.026;2023-03-21T12:20:44;19.30;48.70
15298;DHT22;7750;48.796;9.026;2023-03-21T12:36:58;19.50;49.40
15298;DHT22;7750;48.796;9.026;2023-03-21T12:47:30;19.50;49.00
15298;DHT22;7750;48.796;9.026;2023-03-21T12:52:39;19.60;49.50
15298;DHT22;7750;48.796;9.026;2023-03-21T12:58:14;19.80;49.10
15298;DHT22;7750;48.796;9.026;2023-03-21T13:03:40;20.00;48.60
15298;DHT22;7750;48.796;9.026;2023-03-21T13:08:55;20.10;49.00
15298;DHT22;7750;48.796;9.026;2023-03-21T13:14:16;20.10;48.70
15298;DHT22;7750;48.796;9.026;2023-03-21T13:19:37;20.20;48.50
15298;DHT22;7750;48.796;9.026;2023-03-21T13:24:41;20.20;48.80
15298;DHT22;7750;48.796;9.026;2023-03-21T13:29:53;20.30;48.60
15298;DHT22;7750;48.796;9.026;2023-03-21T13:35:00;20.30;48.90
15298;DHT22;7750;48.796;9.026;2023-03-21T13:40:06;20.40;49.00
15298;DHT22;7750;48.796;9.026;2023-03-21T13:50:51;20.40;46.50
15298;DHT22;7750;48.796;9.026;2023-03-21T13:56:19;20.30;47.70
15298;DHT22;7750;48.796;9.026;2023-03-21T14:01:34;20.30;47.70
15298;DHT22;7750;48.796;9.026;2023-03-21T14:11:54;20.30;49.20
15298;DHT22;7750;48.796;9.026;2023-03-21T14:16:55;20.30;49.70
15298;DHT22;7750;48.796;9.026;2023-03-21T14:21:56;20.40;50.10
15298;DHT22;7750;48.796;9.026;2023-03-21T14:26:56;20.50;50.00
15298;DHT22;7750;48.796;9.026;2023-03-21T14:31:58;20.50;50.00
15298;DHT22;7750;48.796;9.026;2023-03-21T14:37:00;20.60;50.10
15298;DHT22;7750;48.796;9.026;2023-03-21T14:42:10;20.60;50.10
15298;DHT22;7750;48.796;9.026;2023-03-21T14:47:38;20.60;50.10
15298;DHT22;7750;48.796;9.026;2023-03-21T14:52:40;20.70;50.10
15298;DHT22;7750;48.796;9.026;2023-03-21T14:57:41;20.70;50.10
15298;DHT22;7750;48.796;9.026;2023-03-21T15:02:42;20.60;49.90
15298;DHT22;7750;48.796;9.026;2023-03-21T15:07:59;20.50;49.50
15298;DHT22;7750;48.796;9.026;2023-03-21T15:13:15;20.50;49.70
15298;DHT22;7750;48.796;9.026;2023-03-21T15:18:24;20.30;50.10
15298;DHT22;7750;48.796;9.026;2023-03-21T15:23:39;20.20;49.90
15298;DHT22;7750;48.796;9.026;2023-03-21T15:28:41;20.20;49.90
15298;DHT22;7750;48.796;9.026;2023-03-21T15:33:50;20.20;50.10
15298;DHT22;7750;48.796;9.026;2023-03-21T15:39:04;20.10;50.50
15298;DHT22;7750;48.796;9.026;2023-03-21T15:54:20;19.90;50.40
15298;DHT22;7750;48.796;9.026;2023-03-21T15:59:26;19.80;50.80
15298;DHT22;7750;48.796;9.026;2023-03-21T16:04:27;19.70;51.10
15298;DHT22;7750;48.796;9.026;2023-03-21T16:09:42;19.70;51.10
15298;DHT22;7750;48.796;9.026;2023-03-21T16:14:43;19.70;51.30
15298;DHT22;7750;48.796;9.026;2023-03-21T16:19:43;19.60;51.20
15298;DHT22;7750;48.796;9.026;2023-03-21T16:24:44;19.60;51.40
15298;DHT22;7750;48.796;9.026;2023-03-21T16:29:45;19.50;51.30
15298;DHT22;7750;48.796;9.026;2023-03-21T16:40:41;19.30;51.60
15298;DHT22;7750;48.796;9.026;2023-03-21T16:45:53;19.30;51.70
15298;DHT22;7750;48.796;9.026;2023-03-21T16:50:54;19.20;52.00
15298;DHT22;7750;48.796;9.026;2023-03-21T16:55:54;19.20;51.90
15298;DHT22;7750;48.796;9.026;2023-03-21T17:01:01;19.10;52.00
15298;DHT22;7750;48.796;9.026;2023-03-21T17:06:02;19.10;52.10
15298;DHT22;7750;48.796;9.026;2023-03-21T17:11:03;19.00;52.30
15298;DHT22;7750;48.796;9.026;2023-03-21T17:16:06;19.00;52.50
15298;DHT22;7750;48.796;9.026;2023-03-21T17:21:12;19.00;52.60
15298;DHT22;7750;48.796;9.026;2023-03-21T17:26:16;18.90;52.70
15298;DHT22;7750;48.796;9.026;2023-03-21T17:31:20;18.90;52.80
15298;DHT22;7750;48.796;9.026;2023-03-21T17:36:34;18.80;52.90
15298;DHT22;7750;48.796;9.026;2023-03-21T17:41:35;18.80;53.10
15298;DHT22;7750;48.796;9.026;2023-03-21T17:46:36;18.70;53.20
15298;DHT22;7750;48.796;9.026;2023-03-21T17:51:37;18.60;53.30
15298;DHT22;7750;48.796;9.026;2023-03-21T17:56:41;18.60;53.60
15298;DHT22;7750;48.796;9.026;2023-03-21T18:06:52;18.50;54.20
15298;DHT22;7750;48.796;9.026;2023-03-21T18:11:56;18.40;54.50
15298;DHT22;7750;48.796;9.026;2023-03-21T18:16:56;18.30;54.70
15298;DHT22;7750;48.796;9.026;2023-03-21T18:21:57;18.20;55.00
15298;DHT22;7750;48.796;9.026;2023-03-21T18:26:58;18.20;56.10
15298;DHT22;7750;48.796;9.026;2023-03-21T18:31:58;18.10;55.70
15298;DHT22;7750;48.796;9.026;2023-03-21T18:37:00;18.00;55.90
15298;DHT22;7750;48.796;9.026;2023-03-21T18:42:01;17.90;55.90
15298;DHT22;7750;48.796;9.026;2023-03-21T18:47:06;17.90;55.60
15298;DHT22;7750;48.796;9.026;2023-03-21T18:57:17;17.80;56.40
15298;DHT22;7750;48.796;9.026;2023-03-21T19:02:19;17.70;56.50
15298;DHT22;7750;48.796;9.026;2023-03-21T19:07:19;17.60;56.70
15298;DHT22;7750;48.796;9.026;2023-03-21T19:12:20;17.60;56.70
15298;DHT22;7750;48.796;9.026;2023-03-21T19:17:22;17.50;56.50
15298;DHT22;7750;48.796;9.026;2023-03-21T19:22:23;17.50;56.30
15298;DHT22;7750;48.796;9.026;2023-03-21T19:27:24;17.40;56.20
15298;DHT22;7750;48.796;9.026;2023-03-21T19:32:25;17.40;56.30
15298;DHT22;7750;48.796;9.026;2023-03-21T19:37:26;17.40;56.60
15298;DHT22;7750;48.796;9.026;2023-03-21T19:42:30;17.40;56.80
15298;DHT22;7750;48.796;9.026;2023-03-21T19:47:31;17.30;57.00
15298;DHT22;7750;48.796;9.026;2023-03-21T19:52:32;17.30;57.20
15298;DHT22;7750;48.796;9.026;2023-03-21T19:57:36;17.20;57.10
15298;DHT22;7750;48.796;9.026;2023-03-21T20:02:37;17.20;56.80
15298;DHT22;7750;48.796;9.026;2023-03-21T20:07:38;17.10;56.90
15298;DHT22;7750;48.796;9.026;2023-03-21T20:12:38;17.10;56.60
15298;DHT22;7750;48.796;9.026;2023-03-21T20:17:39;17.00;56.80
15298;DHT22;7750;48.796;9.026;2023-03-21T20:22:41;17.00;56.70
15298;DHT22;7750;48.796;9.026;2023-03-21T20:27:43;17.00;56.70
15298;DHT22;7750;48.796;9.026;2023-03-21T20:33:19;17.00;56.80
15298;DHT22;7750;48.796;9.026;2023-03-21T20:38:37;17.00;56.80
15298;DHT22;7750;48.796;9.026;2023-03-21T20:43:51;16.90;57.00
15298;DHT22;7750;48.796;9.026;2023-03-21T20:55:31;16.80;57.30
15298;DHT22;7750;48.796;9.026;2023-03-21T21:00:33;16.70;57.40
15298;DHT22;7750;48.796;9.026;2023-03-21T21:05:52;16.60;57.50
15298;DHT22;7750;48.796;9.026;2023-03-21T21:10:59;16.60;57.90
15298;DHT22;7750;48.796;9.026;2023-03-21T21:16:00;16.50;58.00
15298;DHT22;7750;48.796;9.026;2023-03-21T21:21:03;16.40;58.00
15298;DHT22;7750;48.796;9.026;2023-03-21T21:26:07;16.40;58.20
15298;DHT22;7750;48.796;9.026;2023-03-21T21:31:14;16.30;58.30
15298;DHT22;7750;48.796;9.026;2023-03-21T21:36:16;16.30;58.60
15298;DHT22;7750;48.796;9.026;2023-03-21T21:41:20;16.30;58.00
15298;DHT22;7750;48.796;9.026;2023-03-21T21:46:21;16.30;58.40
15298;DHT22;7750;48.796;9.026;2023-03-21T21:51:22;16.20;58.30
15298;DHT22;7750;48.796;9.026;2023-03-21T21:56:26;16.20;58.50
15298;DHT22;7750;48.796;9.026;2023-03-21T22:01:32;16.10;58.50
15298;DHT22;7750;48.796;9.026;2023-03-21T22:06:37;16.10;58.60
15298;DHT22;7750;48.796;9.026;2023-03-21T22:11:38;16.10;58.80
15298;DHT22;7750;48.796;9.026;2023-03-21T22:16:39;16.00;58.90
15298;DHT22;7750;48.796;9.026;2023-03-21T22:21:40;16.00;59.10
15298;DHT22;7750;48.796;9.026;2023-03-21T22:26:40;15.90;59.20
15298;DHT22;7750;48.796;9.026;2023-03-21T22:31:41;15.80;59.30
15298;DHT22;7750;48.796;9.026;2023-03-21T22:36:42;15.80;59.30
15298;DHT22;7750;48.796;9.026;2023-03-21T22:41:46;15.70;59.30
15298;DHT22;7750;48.796;9.026;2023-03-21T22:46:47;15.70;59.50
15298;DHT22;7750;48.796;9.026;2023-03-21T22:51:47;15.60;59.60
15298;DHT22;7750;48.796;9.026;2023-03-21T22:56:48;15.50;59.50
15298;DHT22;7750;48.796;9.026;2023-03-21T23:01:49;15.50;59.50
15298;DHT22;7750;48.796;9.026;2023-03-21T23:06:50;15.40;59.40
15298;DHT22;7750;48.796;9.026;2023-03-21T23:11:51;15.30;59.30
15298;DHT22;7750;48.796;9.026;2023-03-21T23:16:51;15.20;59.30
15298;DHT22;7750;48.796;9.026;2023-03-21T23:21:52;15.10;59.30
15298;DHT22;7750;48.796;9.026;2023-03-21T23:26:55;15.00;59.30
15298;DHT22;7750;48.796;9.026;2023-03-21T23:31:55;14.90;59.40
15298;DHT22;7750;48.796;9.026;2023-03-21T23:36:56;14.80;59.50
15298;DHT22;7750;48.796;9.026;2023-03-21T23:41:57;14.70;59.50
15298;DHT22;7750;48.796;9.026;2023-03-21T23:46:58;14.70;59.60
15298;DHT22;7750;48.796;9.026;2023-03-21T23:51:59;14.60;59.70
15298;DHT22;7750;48.796;9.026;2023-03-21T23:57:00;14.50;59.60
